Terminal Aerodrome Forecast
Issued by NWS

Home | Current Version | Previous Version | Graphics & Text | Print | Product List | Glossary On
Versions: 1 2 3 4 5 6 7 8 9 10 11 12
025
FTUS43 KLSX 210520
TAFSUS
TAF
KSUS 210520Z 2106/2206 21007KT P6SM SCT200 WS015/22045KT
     FM211500 24009KT P6SM BKN200
     FM211700 29009KT P6SM BKN200
     FM212000 33012KT P6SM SCT200=

USA.gov is the U.S. government's official web portal to all federal, state and local government web resources and services.